createdAt,value
2023-04-29T00:02:42.069Z,101467.72
2023-04-29T00:07:45.420Z,101481.63
2023-04-29T00:12:51.604Z,101486.75
2023-04-29T00:17:54.629Z,101485.06
2023-04-29T00:22:57.421Z,101497.31
2023-04-29T00:28:02.230Z,101499.91
2023-04-29T00:33:05.481Z,101499.06
2023-04-29T00:38:08.600Z,101514.75
2023-04-29T00:43:12.803Z,101523.41
2023-04-29T00:48:16.258Z,101534.69
2023-04-29T00:53:18.999Z,101528.56
2023-04-29T00:58:24.040Z,101534.66
2023-04-29T01:03:26.988Z,101540.78
2023-04-29T01:08:35.656Z,101549.56
2023-04-29T01:13:45.246Z,101562.66
2023-04-29T01:18:51.725Z,101559.25
2023-04-29T01:23:59.423Z,101561.00
2023-04-29T01:29:26.774Z,101553.31
2023-04-29T01:34:35.602Z,101574.16
2023-04-29T01:39:47.050Z,101568.91
2023-04-29T01:44:52.571Z,101573.19
2023-04-29T01:49:57.739Z,101574.06
2023-04-29T01:55:02.084Z,101573.19
2023-04-29T02:00:14.955Z,101585.38
2023-04-29T02:05:22.644Z,101587.22
2023-04-29T02:10:33.537Z,101590.72
2023-04-29T02:15:49.899Z,101595.09
2023-04-29T02:20:54.264Z,101600.31
2023-04-29T02:25:58.618Z,101610.81
2023-04-29T02:31:01.558Z,101614.34
2023-04-29T02:36:04.962Z,101626.56
2023-04-29T02:41:09.089Z,101631.75
2023-04-29T02:46:12.035Z,101631.78
2023-04-29T02:51:33.416Z,101630.06
2023-04-29T02:56:37.522Z,101642.22
2023-04-29T03:01:40.601Z,101647.50
2023-04-29T03:06:43.785Z,101647.53
2023-04-29T03:11:49.269Z,101646.63
2023-04-29T03:17:09.615Z,101651.84
2023-04-29T03:22:12.580Z,101668.41
2023-04-29T03:27:20.808Z,101676.31
2023-04-29T03:32:24.238Z,101677.25
2023-04-29T03:37:27.452Z,101685.09
2023-04-29T03:42:45.413Z,101677.25
2023-04-29T03:47:48.499Z,101684.19
2023-04-29T03:52:51.716Z,101693.78
2023-04-29T03:57:56.998Z,101700.81
2023-04-29T04:03:02.697Z,101693.00
2023-04-29T04:08:18.659Z,101696.56
2023-04-29T04:13:32.683Z,101714.84
2023-04-29T04:18:36.110Z,101712.25
2023-04-29T04:23:40.546Z,101719.22
2023-04-29T04:28:46.144Z,101718.38
2023-04-29T04:33:56.085Z,101730.59
2023-04-29T04:38:59.569Z,101738.44
2023-04-29T04:44:04.098Z,101750.78
2023-04-29T04:49:15.979Z,101753.50
2023-04-29T04:54:26.841Z,101755.34
2023-04-29T04:59:41.394Z,101770.28
2023-04-29T05:04:44.719Z,101772.94
2023-04-29T05:09:51.724Z,101776.47
2023-04-29T05:14:56.143Z,101777.38
2023-04-29T05:19:59.589Z,101782.56
2023-04-29T05:25:04.388Z,101789.47
2023-04-29T05:30:12.436Z,101795.56
2023-04-29T05:35:15.530Z,101806.00
2023-04-29T05:40:18.922Z,101805.09
2023-04-29T05:45:24.479Z,101807.72
2023-04-29T05:50:39.359Z,101814.66
2023-04-29T05:55:44.995Z,101816.31
2023-04-29T06:00:50.378Z,101819.72
2023-04-29T06:05:59.675Z,101837.03
2023-04-29T06:11:15.751Z,101842.19
2023-04-29T06:16:20.310Z,101848.09
2023-04-29T06:21:23.261Z,101847.09
2023-04-29T06:26:26.156Z,101853.88
2023-04-29T06:31:30.685Z,101850.31
2023-04-29T06:36:38.353Z,101855.41
2023-04-29T06:42:09.371Z,101869.25
2023-04-29T06:47:33.034Z,101875.84
2023-04-29T06:52:46.796Z,101880.84
2023-04-29T06:57:49.777Z,101879.00
2023-04-29T07:02:54.045Z,101889.84
2023-04-29T07:07:57.642Z,101899.28
2023-04-29T07:13:01.515Z,101909.16
2023-04-29T07:18:06.642Z,101917.78
2023-04-29T07:23:10.365Z,101919.03
2023-04-29T07:28:13.445Z,101927.97
2023-04-29T07:33:18.808Z,101926.41
2023-04-29T07:38:21.899Z,101938.75
2023-04-29T07:43:24.830Z,101945.22
2023-04-29T07:48:29.095Z,101944.34
2023-04-29T07:53:32.097Z,101940.72
2023-04-29T07:58:36.731Z,101966.34
2023-04-29T08:03:42.121Z,101957.75
2023-04-29T08:08:47.655Z,101967.13
2023-04-29T08:13:50.719Z,101962.06
2023-04-29T08:18:56.256Z,101962.19
2023-04-29T08:24:10.921Z,101971.50
2023-04-29T08:29:13.729Z,101992.28
2023-04-29T08:34:17.914Z,101987.44
2023-04-29T08:39:20.887Z,102002.22
2023-04-29T08:44:23.878Z,102002.06
2023-04-29T08:49:29.186Z,102002.19
2023-04-29T08:54:32.919Z,102010.44
2023-04-29T08:59:56.451Z,102014.16
2023-04-29T09:05:07.407Z,102020.97
2023-04-29T09:10:11.766Z,102022.88
2023-04-29T09:15:14.918Z,102030.34
2023-04-29T09:20:29.875Z,102037.44
2023-04-29T09:25:57.691Z,102028.28
2023-04-29T09:31:00.521Z,102032.28
2023-04-29T09:36:04.970Z,102032.03
2023-04-29T09:41:12.091Z,102033.75
2023-04-29T09:46:15.192Z,102032.03
2023-04-29T09:51:32.381Z,102032.72
2023-04-29T09:56:50.791Z,102037.75
2023-04-29T10:01:54.897Z,102033.06
2023-04-29T10:07:00.377Z,102030.72
2023-04-29T10:12:04.288Z,102040.69
2023-04-29T10:17:12.768Z,102044.91
2023-04-29T10:22:21.662Z,102046.81
2023-04-29T10:27:26.417Z,102046.09
2023-04-29T10:32:37.000Z,102040.19
2023-04-29T10:37:49.049Z,102040.13
2023-04-29T10:42:53.138Z,102045.34
2023-04-29T10:48:15.719Z,102038.63
2023-04-29T10:53:21.150Z,102044.53
2023-04-29T10:58:37.460Z,102041.38
2023-04-29T11:03:58.748Z,102042.94
2023-04-29T11:09:04.731Z,102038.19
2023-04-29T11:14:09.779Z,102037.47
2023-04-29T11:19:16.485Z,102052.13
2023-04-29T11:24:20.701Z,102047.78
2023-04-29T11:29:30.300Z,102042.81
2023-04-29T11:34:33.110Z,102038.31
2023-04-29T11:39:37.320Z,102041.31
2023-04-29T11:44:40.557Z,102050.75
2023-04-29T11:49:43.511Z,102060.59
2023-04-29T11:54:48.659Z,102066.66
2023-04-29T11:59:51.558Z,102077.97
2023-04-29T12:04:54.892Z,102077.91
2023-04-29T12:10:00.173Z,102072.75
2023-04-29T12:15:03.686Z,102073.66
2023-04-29T12:20:08.200Z,102078.59
2023-04-29T12:25:14.094Z,102071.69
2023-04-29T12:30:17.029Z,102081.66
2023-04-29T12:35:20.061Z,102085.22
2023-04-29T12:40:24.819Z,102085.34
2023-04-29T12:45:28.932Z,102085.34
2023-04-29T12:50:45.780Z,102080.78
2023-04-29T12:55:50.006Z,102093.63
2023-04-29T13:00:54.090Z,102087.72
2023-04-29T13:05:57.292Z,102085.91
2023-04-29T13:11:02.795Z,102095.16
2023-04-29T13:16:11.969Z,102097.56
2023-04-29T13:21:14.844Z,102095.84
2023-04-29T13:26:19.213Z,102101.44
2023-04-29T13:31:22.288Z,102094.44
2023-04-29T13:36:28.162Z,102103.91
2023-04-29T13:41:47.389Z,102091.34
2023-04-29T13:46:52.064Z,102099.78
2023-04-29T13:52:34.897Z,102100.94
2023-04-29T14:02:45.862Z,102110.50
2023-04-29T14:07:49.061Z,102112.41
2023-04-29T14:12:53.390Z,102124.53
2023-04-29T14:17:56.993Z,102126.34
2023-04-29T14:22:59.917Z,102121.91
2023-04-29T14:28:24.457Z,102136.09
2023-04-29T14:33:27.449Z,102132.75
2023-04-29T14:38:30.371Z,102130.34
2023-04-29T14:43:34.661Z,102135.88
2023-04-29T14:48:37.594Z,102130.94
2023-04-29T14:54:00.833Z,102138.34
2023-04-29T14:59:06.803Z,102135.25
2023-04-29T15:04:10.061Z,102128.56
2023-04-29T15:09:13.350Z,102130.44
2023-04-29T15:14:17.582Z,102147.53
2023-04-29T15:19:40.774Z,102143.69
2023-04-29T15:24:43.658Z,102153.56
2023-04-29T15:29:47.974Z,102157.31
2023-04-29T15:34:50.954Z,102158.78
2023-04-29T15:40:14.398Z,102162.19
2023-04-29T15:45:39.116Z,102166.00
2023-04-29T15:50:42.100Z,102162.06
2023-04-29T15:55:45.122Z,102170.81
2023-04-29T16:00:49.603Z,102180.53
2023-04-29T16:05:52.716Z,102177.81
2023-04-29T16:10:56.141Z,102187.72
2023-04-29T16:16:00.260Z,102189.25
2023-04-29T16:21:04.579Z,102193.13
2023-04-29T16:26:07.563Z,102195.22
2023-04-29T16:31:13.109Z,102200.16
2023-04-29T16:36:16.089Z,102205.63
2023-04-29T16:41:18.999Z,102213.78
2023-04-29T16:46:23.379Z,102219.00
2023-04-29T16:51:26.668Z,102213.59
2023-04-29T16:56:29.656Z,102217.31
2023-04-29T17:01:33.988Z,102222.69
2023-04-29T17:06:37.838Z,102223.00
2023-04-29T17:11:41.416Z,102221.63
2023-04-29T17:16:45.578Z,102216.84
2023-04-29T17:21:48.396Z,102225.88
2023-04-29T17:26:51.264Z,102223.56
2023-04-29T17:31:59.708Z,102223.13
2023-04-29T17:37:03.168Z,102221.63
2023-04-29T17:42:06.051Z,102212.25
2023-04-29T17:47:11.025Z,102214.34
2023-04-29T17:52:15.183Z,102212.19
2023-04-29T17:57:18.129Z,102217.75
2023-04-29T18:02:22.491Z,102223.34
2023-04-29T18:07:25.555Z,102236.06
2023-04-29T18:12:28.412Z,102235.66
2023-04-29T18:17:33.764Z,102251.09
2023-04-29T18:22:36.656Z,102243.63
2023-04-29T18:27:39.513Z,102245.84
2023-04-29T18:32:43.721Z,102262.03
2023-04-29T18:37:46.624Z,102252.84
2023-04-29T18:42:49.505Z,102264.59
2023-04-29T18:47:53.853Z,102269.28
2023-04-29T18:52:56.848Z,102264.25
2023-04-29T18:57:59.873Z,102275.97
2023-04-29T19:03:04.159Z,102278.78
2023-04-29T19:08:07.512Z,102289.50
2023-04-29T19:13:10.812Z,102282.66
2023-04-29T19:18:15.110Z,102289.00
2023-04-29T19:23:18.626Z,102284.72
2023-04-29T19:28:21.500Z,102291.78
2023-04-29T19:33:25.712Z,102306.09
2023-04-29T19:38:28.627Z,102313.09
2023-04-29T19:43:31.759Z,102322.75
2023-04-29T19:48:36.087Z,102332.44
2023-04-29T19:53:39.494Z,102332.50
2023-04-29T19:58:42.372Z,102333.47
2023-04-29T20:03:46.787Z,102329.09
2023-04-29T20:08:49.714Z,102333.50
2023-04-29T20:13:52.994Z,102334.41
2023-04-29T20:18:57.220Z,102337.03
2023-04-29T20:24:00.039Z,102339.66
2023-04-29T20:29:02.893Z,102344.94
2023-04-29T20:34:07.158Z,102341.44
2023-04-29T20:39:10.809Z,102344.94
2023-04-29T20:44:13.827Z,102356.25
2023-04-29T20:49:18.659Z,102350.16
2023-04-29T20:54:21.542Z,102352.81
2023-04-29T20:59:24.302Z,102361.53
2023-04-29T21:04:28.596Z,102363.28
2023-04-29T21:09:31.531Z,102362.44
2023-04-29T21:14:34.972Z,102369.38
2023-04-29T21:19:39.151Z,102366.78
2023-04-29T21:24:42.017Z,102371.13
2023-04-29T21:29:44.848Z,102373.72
2023-04-29T21:34:49.120Z,102361.53
2023-04-29T21:39:52.178Z,102380.72
2023-04-29T21:44:55.985Z,102370.25
2023-04-29T21:50:00.737Z,102366.78
2023-04-29T21:55:03.651Z,102376.34
2023-04-29T22:00:19.462Z,102386.78
2023-04-29T22:05:23.734Z,102378.09
2023-04-29T22:10:26.895Z,102384.19
2023-04-29T22:15:29.951Z,102381.53
2023-04-29T22:20:34.110Z,102378.06
2023-04-29T22:25:36.937Z,102373.69
2023-04-29T22:30:39.895Z,102381.53
2023-04-29T22:35:44.200Z,102378.06
2023-04-29T22:40:50.553Z,102371.94
2023-04-29T22:45:53.780Z,102384.97
2023-04-29T22:50:59.982Z,102386.72
2023-04-29T22:56:03.188Z,102379.75
2023-04-29T23:01:06.086Z,102384.09
2023-04-29T23:06:10.364Z,102385.84
2023-04-29T23:11:13.321Z,102389.28
2023-04-29T23:16:16.527Z,102394.50
2023-04-29T23:21:20.772Z,102404.88
2023-04-29T23:26:24.269Z,102406.59
2023-04-29T23:31:27.148Z,102421.38
2023-04-29T23:36:31.507Z,102418.78
2023-04-29T23:41:34.322Z,102410.84
2023-04-29T23:46:37.275Z,102418.66
2023-04-29T23:51:41.589Z,102419.53
2023-04-29T23:56:44.404Z,102423.00
